»·PEaware :: JBU186 KIAD-KJFK

JBU186 :: KIAD-KJFK

FLIGHT INFORMATION

Flight Status: Arrived
Operator:
JetBlue Airways
More flights by this operator :: More flights under this callsign
Pilot: Josh G. (4619)
Aircraft: AIRBUS A320
(A320)
More flights by this aircraft type
Origin: KIAD Washington Dulles Intl
United States
Destination: KJFK Kennedy Intl
United States
More flights between these airports :: More routes between these airports
Route: JCOBY3 AGARD SIE CAMRN4
File this flight plan on PilotEdge
Remarks:
Altitude:
(Current/Filed)
23,000ft
Speed:
(Current/Filed)
450kts
Departed: 30-Jan-17 03:16 PM
Arrived: 30-Jan-17 03:59 PM
Distance/Time
Traveled:
197nm/0:43
Distance/Time
To Go:
Arrived

Flight Plot

Page will automatically refresh every two minutes.


Map Options




Map Legend


Flown Route
Filed Route
Departure Airport
Arrival Airport
Navaid (VOR, NDB)
Fix

Horizontal Profiles

Position Reports

Time Latitude Longitude Heading Altitude Ground
Speed
30-Jan-17 15:03 38.948196 -77.449957 0 326ft 0kts
30-Jan-17 15:04 38.947738 -77.449962 0 326ft 2kts
30-Jan-17 15:05 38.947369 -77.449965 0 326ft 0kts
30-Jan-17 15:06 38.947369 -77.449965 0 326ft 0kts
30-Jan-17 15:07 38.947369 -77.449965 0 326ft 0kts
30-Jan-17 15:08 38.947370 -77.449965 0 326ft 0kts
30-Jan-17 15:09 38.947370 -77.449965 0 326ft 0kts
30-Jan-17 15:10 38.947466 -77.450626 237 326ft 8kts
30-Jan-17 15:11 38.947344 -77.455805 246 326ft 5kts
30-Jan-17 15:12 38.943690 -77.456120 181 326ft 21kts
30-Jan-17 15:13 38.936298 -77.456626 222 326ft 13kts
30-Jan-17 15:14 38.938965 -77.458967 313 326ft 17kts
30-Jan-17 15:15 38.940221 -77.459831 1 326ft 0kts
30-Jan-17 15:16 38.947198 -77.459725 0 326ft 113kts
30-Jan-17 15:17 38.985465 -77.447252 30 2118ft 159kts
30-Jan-17 15:18 39.030173 -77.410910 27 3744ft 220kts
30-Jan-17 15:19 39.088738 -77.363518 28 6237ft 269kts
30-Jan-17 15:20 39.150168 -77.305349 59 9325ft 292kts
30-Jan-17 15:21 39.140000 -77.197939 103 11562ft 335kts
30-Jan-17 15:22 39.119880 -77.070112 100 12887ft 391kts
30-Jan-17 15:23 39.090400 -76.931982 111 14944ft 410kts
30-Jan-17 15:24 39.048230 -76.792269 111 16778ft 429kts
30-Jan-17 15:25 39.009103 -76.645134 93 18578ft 443kts
30-Jan-17 15:26 39.010009 -76.484943 87 20352ft 455kts
30-Jan-17 15:27 39.015066 -76.320983 81 21991ft 464kts
30-Jan-17 15:28 39.025156 -76.154273 82 23670ft 469kts
30-Jan-17 15:29 39.034540 -75.987592 83 25045ft 468kts
30-Jan-17 15:30 39.043842 -75.820769 83 25040ft 467kts
30-Jan-17 15:31 39.052863 -75.654623 84 25028ft 466kts
30-Jan-17 15:32 39.061575 -75.488564 84 24980ft 465kts
30-Jan-17 15:33 39.070207 -75.322629 84 24992ft 465kts
30-Jan-17 15:34 39.078399 -75.156208 85 25029ft 464kts
30-Jan-17 15:35 39.086481 -74.990741 85 25063ft 463kts
30-Jan-17 15:36 39.100790 -74.826888 65 25037ft 459kts
30-Jan-17 15:37 39.181995 -74.707362 34 24999ft 444kts
30-Jan-17 15:38 39.276770 -74.604329 35 25000ft 444kts
30-Jan-17 15:39 39.371502 -74.501540 35 24987ft 445kts
30-Jan-17 15:40 39.463409 -74.401098 35 23919ft 422kts
30-Jan-17 15:41 39.552288 -74.304066 36 22988ft 418kts
30-Jan-17 15:42 39.640747 -74.206809 36 22564ft 415kts
30-Jan-17 15:43 39.727246 -74.111528 37 19942ft 397kts
30-Jan-17 15:44 39.809606 -74.020552 37 17152ft 380kts
30-Jan-17 15:45 39.895716 -73.946555 24 14064ft 370kts
30-Jan-17 15:46 39.985953 -73.883367 26 11224ft 355kts
30-Jan-17 15:47 40.066268 -73.831612 20 10488ft 295kts
30-Jan-17 15:48 40.138024 -73.788942 20 9131ft 276kts
30-Jan-17 15:49 40.205988 -73.748271 20 7546ft 265kts
30-Jan-17 15:50 40.271916 -73.708707 20 5915ft 257kts
30-Jan-17 15:51 40.336355 -73.670092 20 4278ft 250kts
30-Jan-17 15:52 40.398849 -73.633112 20 3198ft 233kts
30-Jan-17 15:53 40.455041 -73.599661 20 2977ft 221kts
30-Jan-17 15:54 40.510236 -73.606286 336 2942ft 197kts
30-Jan-17 15:55 40.560114 -73.636945 328 1982ft 194kts
30-Jan-17 15:56 40.589001 -73.685895 303 1720ft 173kts
30-Jan-17 15:57 40.612323 -73.737988 303 755ft 150kts
30-Jan-17 15:58 40.631641 -73.779914 303 58ft 130kts
30-Jan-17 15:59 40.639572 -73.795291 356 27ft 0kts
30-Jan-17 16:00 40.641217 -73.795191 1 27ft 4kts
30-Jan-17 16:01 40.644034 -73.794863 351 27ft 9kts
30-Jan-17 16:02 40.645967 -73.795254 0 27ft 1kts
30-Jan-17 16:03 40.648570 -73.797111 1 27ft 12kts
30-Jan-17 16:04 40.650427 -73.796254 90 27ft 3kts
30-Jan-17 16:05 40.649708 -73.795268 167 27ft 0kts
30-Jan-17 16:06 40.649639 -73.795246 165 27ft 0kts
30-Jan-17 16:07 40.649639 -73.795246 165 27ft 0kts
30-Jan-17 16:08 40.649639 -73.795246 165 27ft 0kts
30-Jan-17 16:09 40.649639 -73.795246 165 27ft 0kts
30-Jan-17 16:10 40.649639 -73.795246 165 27ft 0kts
30-Jan-17 16:11 40.649639 -73.795246 165 27ft 0kts
30-Jan-17 16:12 40.649639 -73.795246 165 27ft 0kts
30-Jan-17 16:13 40.649639 -73.795246 165 27ft 0kts

Navigation Log

Ident Type
Flight plan parsing failed, navigation log unavailable